Latest Weather Observations for Rottnest Island

IDW60801

Issued at 12:43 pm WST Saturday 22 February 2020 (issued every 10 minutes, with the page automatically refreshed every 10 minutes)

About weather observations | Map of weather stations | Latest weather observations for WA | Other Formats
Station Details ID: 009193 Name: ROTTNEST ISLAND Lat: -32.01 Lon: 115.50 Height: 43.1 m
Data from the previous 72 hours. | See also: Recent months at Rottnest Island
Date/Time
WST
Temp
°C
App
Temp
°C
Dew
Point
°C
Rel
Hum
%
Delta-T
°C
Wind Press
QNH
hPa
Press
MSL
hPa
Rain since
9am
mm
Dir  Spd
km/h
Gust
km/h
Spd
kts
Gust
kts
22/12:30pm 25.5 26.4 19.2 68 4.0 ENE 13 20 7 11 1012.1 1011.9 0.0
22/12:00pm 24.3 24.1 19.4 74 3.1 E 19 24 10 13 1012.0 1011.8 0.0
22/11:30am 24.3 24.3 19.8 76 2.9 E 19 24 10 13 1012.2 1012.0 0.0
22/11:00am 23.5 24.3 20.6 84 1.9 E 17 22 9 12 1012.9 1012.7 0.0
22/10:30am 23.1 23.4 20.8 87 1.5 ENE 20 24 11 13 1013.3 1013.1 0.0
22/10:00am 23.6 24.5 21.5 88 1.4 E 19 26 10 14 1013.3 1013.1 0.0
22/09:30am 22.3 23.5 22.1 99 0.1 NE 19 24 10 13 1013.7 1013.5 0.0
22/09:00am 22.1 23.3 22.1 100 0.0 NE 19 26 10 14 1013.5 1013.3 0.0
22/08:30am 21.8 22.6 21.8 100 0.0 NE 20 28 11 15 1013.6 1013.4 0.0
22/08:00am 21.5 22.2 21.5 100 0.0 NE 20 30 11 16 1013.8 1013.6 0.0
22/07:30am 21.4 22.0 21.4 100 0.0 NE 20 24 11 13 1013.8 1013.6 0.0
22/07:00am 21.3 21.9 21.3 100 0.0 NE 20 30 11 16 1013.5 1013.3 0.0
22/06:30am 21.4 20.8 20.6 95 0.5 NNE 24 33 13 18 1013.4 1013.2 0.0
22/06:00am 22.2 22.9 21.5 96 0.5 NNE 20 26 11 14 1013.2 1013.0 0.0
22/05:30am 22.7 23.6 22.7 100 0.0 NNE 22 28 12 15 1013.0 1012.8 0.0
22/05:00am 22.5 23.3 19.1 81 2.2 NE 13 17 7 9 1012.9 1012.7 0.0
22/04:30am 22.5 23.7 22.5 100 0.0 N 20 26 11 14 1012.9 1012.7 0.0
22/04:00am 22.8 24.7 22.1 96 0.5 N 15 17 8 9 1013.0 1012.8 0.0
22/03:30am 23.3 23.7 19.0 77 2.7 N 15 20 8 11 1012.5 1012.3 0.0
22/03:00am 23.9 23.6 17.4 67 4.0 NNE 15 20 8 11 1012.0 1011.8 0.0
22/02:30am 24.3 23.4 15.8 59 5.2 NNE 15 19 8 10 1012.2 1012.0 0.0
22/02:00am 24.5 24.1 15.1 55 5.6 NNE 11 13 6 7 1012.3 1012.1 0.0
22/01:30am 25.2 23.8 14.6 51 6.3 NNE 15 20 8 11 1012.4 1012.2 0.0
22/01:00am 25.4 23.0 13.9 49 6.8 ENE 19 26 10 14 1012.7 1012.5 0.0
22/12:30am 25.2 24.2 14.6 51 6.3 ESE 13 17 7 9 1012.7 1012.5 0.0
22/12:00am 24.9 23.7 16.1 58 5.4 SE 17 20 9 11 1012.5 1012.3 0.0
 
Date/Time
WST
Temp
°C
App
Temp
°C
Dew
Point
°C
Rel
Hum
%
Delta-T
°C
Wind Press
QNH
hPa
Press
MSL
hPa
Rain since
9am
mm
Dir  Spd
km/h
Gust
km/h
Spd
kts
Gust
kts
21/11:30pm 24.9 23.9 16.6 60 5.1 SE 17 20 9 11 1012.7 1012.5 0.0
21/11:00pm 24.9 24.2 17.4 63 4.7 SE 17 20 9 11 1012.7 1012.5 0.0
21/10:30pm 25.0 24.2 17.2 62 4.9 SE 17 20 9 11 1013.1 1012.9 0.0
21/10:00pm 24.3 24.3 19.8 76 2.9 SE 19 22 10 12 1013.2 1013.0 0.0
21/09:30pm 24.4 24.0 18.8 71 3.6 SSE 19 26 10 14 1013.2 1013.0 0.0
21/09:00pm 25.1 24.2 18.3 66 4.3 SE 20 24 11 13 1013.4 1013.2 0.0
21/08:30pm 25.4 24.0 17.1 60 5.2 SE 20 26 11 14 1013.2 1013.0 0.0
21/08:00pm 26.0 23.7 15.7 53 6.3 SE 22 26 12 14 1013.0 1012.8 0.0
21/07:30pm 26.9 24.6 14.0 45 7.7 SE 19 24 10 13 1012.8 1012.6 0.0
21/07:00pm 27.2 25.4 13.2 42 8.2 SE 15 19 8 10 1012.7 1012.5 0.0
21/06:30pm 27.8 26.3 13.0 40 8.7 SE 13 19 7 10 1012.8 1012.6 0.0
21/06:00pm 28.7 25.6 11.7 35 9.8 E 19 26 10 14 1012.6 1012.4 0.0
21/05:30pm 29.0 24.0 11.1 33 10.3 NE 28 54 15 29 1012.5 1012.3 0.0
21/05:24pm 28.6 25.3 11.6 34 9.8 ENE 20 54 11 29 1012.5 1012.3 0.0
21/05:00pm 28.4 28.2 13.5 40 8.9 E 7 13 4 7 1012.6 1012.4 0.0
21/04:30pm 28.7 28.1 12.2 36 9.6 SE 7 15 4 8 1012.7 1012.5 0.0
21/04:00pm 28.1 27.0 12.0 36 9.3 SSE 9 13 5 7 1012.9 1012.7 0.0
21/03:30pm 30.2 27.5 10.2 29 11.4 E 15 20 8 11 1013.1 1012.9 0.0
21/03:00pm 29.7 25.9 9.8 29 11.2 E 20 28 11 15 1013.4 1013.2 0.0
21/02:30pm 28.9 25.5 10.6 32 10.4 SE 19 28 10 15 1013.6 1013.4 0.0
21/02:12pm 28.3 23.3 10.9 34 9.9 NE 28 46 15 25 1014.3 1014.1 0.0
21/02:00pm 29.7 26.0 10.3 30 11.0 ENE 20 28 11 15 1014.0 1013.8 0.0
21/01:30pm 29.6 26.5 11.6 33 10.4 ESE 19 30 10 16 1014.2 1014.0 0.0
21/01:00pm 28.9 25.9 11.9 35 9.9 E 19 28 10 15 1014.5 1014.3 0.0
21/12:30pm 29.6 25.4 11.2 32 10.6 ENE 24 33 13 18 1014.7 1014.5 0.0
21/12:00pm 29.9 25.8 11.4 32 10.7 ENE 24 33 13 18 1015.1 1014.9 0.0
21/11:30am 27.7 23.9 12.5 39 8.9 ENE 24 32 13 17 1015.4 1015.2 0.0
21/11:00am 26.8 24.4 12.8 42 8.2 E 17 26 9 14 1015.8 1015.6 0.0
21/10:30am 26.2 22.6 11.9 41 8.2 E 22 28 12 15 1015.9 1015.7 0.0
21/10:00am 26.2 22.6 11.9 41 8.2 ENE 22 30 12 16 1016.1 1015.9 0.0
21/09:30am 25.5 22.6 12.4 44 7.6 ENE 19 26 10 14 1016.0 1015.8 0.0
21/09:00am 25.1 21.8 12.7 46 7.2 ENE 22 32 12 17 1015.8 1015.6 0.0
21/08:30am 24.6 21.3 12.9 48 6.8 ENE 22 32 12 17 1015.7 1015.5 0.0
21/08:00am 24.1 20.4 12.7 49 6.6 ENE 24 32 13 17 1015.6 1015.4 0.0
21/07:30am 24.0 20.0 12.9 50 6.4 ENE 26 37 14 20 1015.4 1015.2 0.0
21/07:00am 24.0 20.4 12.9 50 6.4 ENE 24 39 13 21 1015.3 1015.1 0.0
21/06:30am 24.1 20.0 12.7 49 6.6 E 26 39 14 21 1015.0 1014.8 0.0
21/06:00am 24.0 20.9 13.5 52 6.1 E 22 32 12 17 1014.8 1014.6 0.0
21/05:30am 24.1 20.6 13.3 51 6.3 ENE 24 32 13 17 1014.5 1014.3 0.0
21/05:00am 24.3 20.7 13.2 50 6.5 E 24 35 13 19 1014.1 1013.9 0.0
21/04:30am 24.3 20.8 13.5 51 6.3 E 24 33 13 18 1014.0 1013.8 0.0
21/04:00am 24.4 20.7 13.9 52 6.2 E 26 33 14 18 1013.9 1013.7 0.0
21/03:30am 24.5 20.5 13.1 49 6.6 E 26 39 14 21 1013.9 1013.7 0.0
21/03:00am 24.9 20.5 12.8 47 7.0 E 28 39 15 21 1013.7 1013.5 0.0
21/02:30am 25.3 21.7 12.9 46 7.2 E 24 33 13 18 1013.6 1013.4 0.0
21/02:00am 25.7 21.9 12.5 44 7.6 E 24 33 13 18 1013.7 1013.5 0.0
21/01:30am 25.7 23.0 12.9 45 7.5 E 19 26 10 14 1014.0 1013.8 0.0
21/01:00am 26.6 23.0 10.7 37 9.0 ENE 20 26 11 14 1014.3 1014.1 0.0
21/12:30am 27.6 23.4 9.9 33 9.9 ENE 22 30 12 16 1014.2 1014.0 0.0
21/12:00am 27.6 23.7 10.8 35 9.5 ENE 22 39 12 21 1014.0 1013.8 0.0
 
Date/Time
WST
Temp
°C
App
Temp
°C
Dew
Point
°C
Rel
Hum
%
Delta-T
°C
Wind Press
QNH
hPa
Press
MSL
hPa
Rain since
9am
mm
Dir  Spd
km/h
Gust
km/h
Spd
kts
Gust
kts
20/11:30pm 28.2 23.3 9.9 32 10.3 E 26 35 14 19 1013.6 1013.4 0.0
20/11:00pm 27.9 23.4 10.1 33 10.0 E 24 32 13 17 1013.4 1013.2 0.0
20/10:30pm 27.9 24.9 10.6 34 9.8 ESE 17 24 9 13 1013.5 1013.3 0.0
20/10:00pm 27.8 24.9 12.2 38 9.1 ESE 19 28 10 15 1013.5 1013.3 0.0
20/09:30pm 27.9 25.5 13.8 42 8.4 ESE 19 22 10 12 1013.4 1013.2 0.0
20/09:00pm 24.9 26.6 21.6 82 2.2 SE 15 19 8 10 1013.3 1013.1 0.0
20/08:30pm 24.1 26.0 22.7 92 0.9 SSE 17 20 9 11 1012.9 1012.7 0.0
20/08:00pm 24.1 24.6 20.8 82 2.2 SSE 19 22 10 12 1012.7 1012.5 0.0
20/07:30pm 24.7 24.0 18.6 69 3.9 S 20 30 11 16 1012.5 1012.3 0.0
20/07:00pm 25.4 23.2 17.8 62 4.8 S 26 32 14 17 1012.0 1011.8 0.0
20/06:30pm 25.2 23.2 18.2 65 4.4 S 26 32 14 17 1011.7 1011.5 0.0
20/06:00pm 26.1 22.4 17.5 59 5.4 S 33 41 18 22 1011.3 1011.1 0.0
20/05:30pm 27.1 23.5 17.3 55 6.2 S 32 37 17 20 1011.2 1011.0 0.0
20/05:00pm 26.5 23.9 17.8 58 5.5 S 28 35 15 19 1011.2 1011.0 0.0
20/04:30pm 26.9 23.9 17.7 57 5.8 S 30 37 16 20 1011.3 1011.1 0.0
20/04:00pm 26.3 23.2 17.6 58 5.5 SSW 30 37 16 20 1011.4 1011.2 0.0
20/03:30pm 27.4 24.2 17.3 54 6.3 SSW 30 37 16 20 1011.6 1011.4 0.0
20/03:00pm 27.3 25.3 17.5 55 6.2 SSW 24 30 13 16 1012.2 1012.0 0.0
20/02:30pm 28.3 26.1 16.9 50 7.1 SSW 24 28 13 15 1012.6 1012.4 0.0
20/02:00pm 29.8 28.4 16.9 45 8.1 SSW 20 24 11 13 1012.7 1012.5 0.0
20/01:30pm 31.0 29.7 15.8 40 9.5 S 17 20 9 11 1012.9 1012.7 0.0
20/01:00pm 31.7 28.7 12.5 31 11.4 S 20 26 11 14 1013.2 1013.0 0.0
20/12:30pm 32.1 29.6 12.3 29 11.7 ESE 17 24 9 13 1013.6 1013.4 0.0
20/12:00pm 31.4 29.6 12.2 30 11.3 ENE 13 17 7 9 1013.8 1013.6 0.0
20/11:30am 29.2 27.2 12.6 36 9.8 ENE 15 22 8 12 1014.1 1013.9 0.0
20/11:00am 29.0 26.5 12.4 36 9.7 ENE 17 24 9 13 1014.3 1014.1 0.0
20/10:30am 29.7 27.6 13.5 37 9.7 ENE 17 24 9 13 1014.3 1014.1 0.0
20/10:00am 28.1 25.3 13.2 39 8.8 E 20 28 11 15 1014.2 1014.0 0.0
20/09:30am 27.0 23.5 13.4 43 8.0 ENE 24 30 13 16 1014.2 1014.0 0.0
20/09:00am 27.9 25.3 13.8 42 8.4 E 20 30 11 16 1014.0 1013.8 0.0
20/08:30am 27.1 23.3 12.3 39 8.6 E 24 33 13 18 1014.0 1013.8 0.0
20/08:00am 27.0 23.0 11.9 39 8.7 ESE 24 32 13 17 1013.8 1013.6 0.0
20/07:30am 26.3 23.2 11.6 40 8.4 ESE 19 28 10 15 1013.7 1013.5 0.0
20/07:00am 25.9 23.6 14.1 48 7.0 E 19 26 10 14 1013.6 1013.4 0.0
20/06:30am 25.1 23.2 14.3 51 6.4 E 17 24 9 13 1013.3 1013.1 0.0
20/06:00am 25.0 22.4 13.2 48 6.9 E 19 26 10 14 1012.9 1012.7 0.0
20/05:30am 25.5 23.0 13.4 47 7.1 E 19 24 10 13 1012.5 1012.3 0.0
20/05:00am 26.2 22.8 12.6 43 7.9 E 22 30 12 16 1012.1 1011.9 0.0
20/04:30am 26.2 23.4 13.3 45 7.6 E 20 28 11 15 1011.6 1011.4 0.0
20/04:00am 26.3 23.7 13.8 46 7.4 E 20 30 11 16 1011.5 1011.3 0.0
20/03:30am 26.7 23.5 13.1 43 8.0 E 22 30 12 16 1011.6 1011.4 0.0
20/03:00am 26.8 23.7 13.5 44 7.9 E 22 30 12 16 1011.5 1011.3 0.0
20/02:30am 27.2 23.0 13.5 42 8.1 E 28 35 15 19 1011.4 1011.2 0.0
20/02:00am 27.4 23.5 13.4 42 8.3 E 26 35 14 19 1011.5 1011.3 0.0
20/01:30am 27.3 24.6 13.6 43 8.1 E 20 28 11 15 1011.4 1011.2 0.0
20/01:00am 27.6 24.5 13.5 41 8.4 E 22 30 12 16 1011.5 1011.3 0.0
20/12:30am 27.2 24.9 14.6 46 7.6 ENE 20 28 11 15 1011.6 1011.4 0.0
20/12:00am 27.2 25.0 14.9 47 7.4 ENE 20 26 11 14 1011.7 1011.5 0.0
 
Date/Time
WST
Temp
°C
App
Temp
°C
Dew
Point
°C
Rel
Hum
%
Delta-T
°C
Wind Press
QNH
hPa
Press
MSL
hPa
Rain since
9am
mm
Dir  Spd
km/h
Gust
km/h
Spd
kts
Gust
kts
19/11:30pm 26.9 24.9 15.6 50 6.9 ENE 20 24 11 13 1011.6 1011.4 0.0
19/11:00pm 25.9 25.9 19.8 69 4.0 E 19 24 10 13 1011.6 1011.4 0.0
19/10:30pm 24.4 26.9 22.5 89 1.3 SE 13 17 7 9 1011.5 1011.3 0.0
19/10:00pm 23.3 25.5 23.3 100 0.0 SSE 17 22 9 12 1011.2 1011.0 0.0
19/09:30pm 23.3 24.9 23.3 100 0.0 SSE 20 26 11 14 1011.2 1011.0 0.0
19/09:00pm 23.2 24.6 22.9 98 0.2 SSE 20 24 11 13 1011.2 1011.0 0.0
19/08:30pm 23.3 25.0 22.3 94 0.7 SSE 17 24 9 13 1010.9 1010.7 0.0
19/08:00pm 23.2 24.3 22.4 95 0.5 S 20 26 11 14 1010.5 1010.3 0.0
19/07:30pm 23.4 23.7 21.5 89 1.3 S 22 26 12 14 1010.4 1010.2 0.0
19/07:00pm 23.8 23.9 21.1 85 1.8 S 22 28 12 15 1010.1 1009.9 0.0
19/06:30pm 24.1 23.8 20.4 80 2.4 S 22 28 12 15 1009.9 1009.7 0.0
19/06:00pm 24.6 23.7 19.9 75 3.0 S 24 30 13 16 1009.9 1009.7 0.0
19/05:30pm 25.0 23.6 18.7 68 4.0 S 24 32 13 17 1009.8 1009.6 0.0
19/05:00pm 25.9 25.4 19.1 66 4.4 S 20 26 11 14 1010.0 1009.8 0.0
19/04:30pm 26.3 24.9 18.7 63 4.9 S 24 32 13 17 1010.0 1009.8 0.0
19/04:00pm 26.1 24.6 19.5 67 4.3 S 26 33 14 18 1010.4 1010.2 0.0
19/03:30pm 26.3 24.2 18.9 63 4.7 SSW 28 33 15 18 1010.5 1010.3 0.0
19/03:00pm 26.4 24.5 19.3 65 4.6 SSW 28 32 15 17 1011.0 1010.8 0.0
19/02:30pm 27.9 25.8 16.2 49 7.2 SSW 22 28 12 15 1011.4 1011.2 0.0
19/02:00pm 27.7 24.7 16.9 51 6.8 SSW 28 33 15 18 1011.6 1011.4 0.0
19/01:30pm 27.7 25.5 16.0 49 7.2 S 22 26 12 14 1011.8 1011.6 0.0
19/01:00pm 30.3 27.4 12.2 33 10.6 SSE 19 20 10 11 1011.9 1011.7 0.0

Other formats

Comma delimited format used in spreadsheet applications
http://www.bom.gov.au/fwo/IDW60801/IDW60801.94602.axf

JavaScript Object Notation format (JSON) in row-major order
http://www.bom.gov.au/fwo/IDW60801/IDW60801.94602.json

Data quality

Most of these data are generated automatically and are frequently updated. Quality checks on data are not normally performed. It is possible for incorrect values to appear. Refer to information at About Latest Weather Observations and please check the disclaimer before using these data.